createdAt,value
2023-02-22T00:02:09.367Z,30.30
2023-02-22T00:04:39.129Z,29.47
2023-02-22T00:07:06.687Z,28.90
2023-02-22T00:09:33.471Z,29.30
2023-02-22T00:12:00.182Z,30.20
2023-02-22T00:14:27.524Z,31.53
2023-02-22T00:16:59.368Z,29.00
2023-02-22T00:19:27.989Z,32.47
2023-02-22T00:21:54.743Z,30.87
2023-02-22T00:24:24.564Z,30.60
2023-02-22T00:26:55.419Z,30.73
2023-02-22T00:29:23.447Z,30.73
2023-02-22T00:31:50.578Z,31.03
2023-02-22T00:34:17.726Z,33.90
2023-02-22T00:36:48.432Z,31.20
2023-02-22T00:39:15.906Z,31.70
2023-02-22T00:41:42.763Z,31.23
2023-02-22T00:44:09.682Z,30.90
2023-02-22T00:46:36.366Z,32.03
2023-02-22T00:49:03.583Z,33.23
2023-02-22T00:51:30.303Z,33.73
2023-02-22T00:53:57.305Z,35.63
2023-02-22T00:56:24.108Z,31.83
2023-02-22T00:58:50.838Z,34.60
2023-02-22T01:01:17.907Z,34.40
2023-02-22T01:03:45.302Z,35.40
2023-02-22T01:06:12.109Z,34.30
2023-02-22T01:08:38.829Z,34.50
2023-02-22T01:11:05.514Z,36.40
2023-02-22T01:13:32.879Z,34.47
2023-02-22T01:16:00.648Z,36.50
2023-02-22T01:18:27.361Z,34.57
2023-02-22T01:20:54.097Z,36.37
2023-02-22T01:23:21.541Z,34.73
2023-02-22T01:25:48.302Z,33.83
2023-02-22T01:28:15.360Z,31.60
2023-02-22T01:30:42.162Z,32.03
2023-02-22T01:33:09.239Z,35.47
2023-02-22T01:35:40.718Z,33.53
2023-02-22T01:38:08.606Z,32.23
2023-02-22T01:40:41.921Z,33.10
2023-02-22T01:43:35.290Z,31.10
2023-02-22T01:46:08.198Z,31.30
2023-02-22T01:48:45.709Z,29.63
2023-02-22T01:51:20.646Z,29.37
2023-02-22T01:53:53.384Z,29.30
2023-02-22T01:56:22.293Z,31.07
2023-02-22T01:59:03.341Z,32.80
2023-02-22T02:01:30.852Z,30.60
2023-02-22T02:04:02.736Z,32.97
2023-02-22T02:06:33.852Z,32.60
2023-02-22T02:09:22.282Z,31.83
2023-02-22T02:11:49.960Z,30.27
2023-02-22T02:14:17.457Z,33.03
2023-02-22T02:16:50.800Z,32.10
2023-02-22T02:19:38.655Z,30.93
2023-02-22T02:22:25.333Z,30.70
2023-02-22T02:25:21.782Z,31.10
2023-02-22T02:28:10.628Z,29.80
2023-02-22T02:30:50.755Z,29.17
2023-02-22T02:33:41.086Z,30.30
2023-02-22T02:36:24.946Z,28.07
2023-02-22T02:39:10.375Z,28.17
2023-02-22T02:41:42.812Z,29.60
2023-02-22T02:44:39.196Z,30.53
2023-02-22T02:47:28.892Z,28.40
2023-02-22T02:50:04.662Z,28.47
2023-02-22T02:52:34.417Z,29.07
2023-02-22T02:55:04.071Z,28.40
2023-02-22T02:57:30.773Z,30.83
2023-02-22T02:59:57.613Z,31.07
2023-02-22T03:03:01.006Z,27.10
2023-02-22T03:05:39.768Z,29.93
2023-02-22T03:08:21.089Z,27.60
2023-02-22T03:11:15.741Z,30.47
2023-02-22T03:13:55.508Z,27.07
2023-02-22T03:16:39.586Z,29.73
2023-02-22T03:19:13.077Z,28.83
2023-02-22T03:21:46.195Z,27.50
2023-02-22T03:24:22.752Z,27.17
2023-02-22T03:29:20.974Z,28.73
2023-02-22T03:32:01.706Z,31.47
2023-02-22T03:34:37.813Z,26.00
2023-02-22T03:37:16.155Z,27.90
2023-02-22T03:39:45.348Z,27.97
2023-02-22T03:42:20.607Z,30.10
2023-02-22T03:44:48.896Z,30.47
2023-02-22T03:47:26.054Z,27.50
2023-02-22T03:49:57.598Z,30.63
2023-02-22T03:52:24.671Z,30.57
2023-02-22T03:54:55.758Z,32.13
2023-02-22T03:57:27.356Z,30.50
2023-02-22T03:59:54.915Z,30.77
2023-02-22T04:02:23.774Z,28.10
2023-02-22T04:04:50.973Z,27.53
2023-02-22T04:07:19.179Z,28.07
2023-02-22T04:09:46.733Z,26.40
2023-02-22T04:12:14.092Z,24.87
2023-02-22T04:14:41.000Z,27.23
2023-02-22T04:17:07.861Z,27.57
2023-02-22T04:19:35.223Z,31.30
2023-02-22T04:22:02.158Z,27.40
2023-02-22T04:24:30.616Z,28.30
2023-02-22T04:26:57.659Z,30.77
2023-02-22T04:29:24.574Z,27.70
2023-02-22T04:31:51.475Z,27.67
2023-02-22T04:34:18.406Z,27.20
2023-02-22T04:36:45.321Z,29.40
2023-02-22T04:39:12.206Z,27.80
2023-02-22T04:41:39.198Z,28.10
2023-02-22T04:44:06.068Z,29.90
2023-02-22T04:46:33.000Z,25.90
2023-02-22T04:48:59.986Z,28.10
2023-02-22T04:51:26.926Z,23.53
2023-02-22T04:53:53.901Z,26.47
2023-02-22T04:56:21.013Z,24.67
2023-02-22T04:58:47.862Z,25.77
2023-02-22T05:01:17.172Z,23.23
2023-02-22T05:03:44.627Z,24.20
2023-02-22T05:06:12.477Z,25.43
2023-02-22T05:08:39.484Z,25.80
2023-02-22T05:11:06.906Z,25.77
2023-02-22T05:13:33.838Z,23.93
2023-02-22T05:16:00.861Z,25.47
2023-02-22T05:18:28.432Z,24.50
2023-02-22T05:20:55.608Z,26.87
2023-02-22T05:23:22.291Z,25.67
2023-02-22T05:25:48.956Z,24.80
2023-02-22T05:28:16.941Z,26.07
2023-02-22T05:30:43.858Z,22.73
2023-02-22T05:33:10.672Z,23.73
2023-02-22T05:35:38.446Z,27.97
2023-02-22T05:38:05.979Z,25.10
2023-02-22T05:40:33.833Z,25.70
2023-02-22T05:43:02.542Z,24.00
2023-02-22T05:45:29.638Z,24.60
2023-02-22T05:47:57.090Z,25.30
2023-02-22T05:50:24.569Z,26.80
2023-02-22T05:52:51.335Z,27.77
2023-02-22T05:55:20.280Z,27.50
2023-02-22T05:57:47.408Z,27.90
2023-02-22T06:00:20.785Z,27.90
2023-02-22T06:02:47.443Z,28.10
2023-02-22T06:05:14.376Z,28.47
2023-02-22T06:07:41.055Z,28.37
2023-02-22T06:10:07.854Z,27.73
2023-02-22T06:12:34.571Z,29.47
2023-02-22T06:15:01.219Z,27.63
2023-02-22T06:17:28.119Z,34.07
2023-02-22T06:19:54.839Z,29.10
2023-02-22T06:22:21.538Z,28.30
2023-02-22T06:24:48.252Z,28.07
2023-02-22T06:27:15.448Z,25.83
2023-02-22T06:29:46.128Z,29.40
2023-02-22T06:32:13.833Z,26.80
2023-02-22T06:34:43.423Z,28.97
2023-02-22T06:37:10.451Z,28.43
2023-02-22T06:39:37.089Z,29.67
2023-02-22T06:42:04.723Z,30.50
2023-02-22T06:44:31.469Z,29.70
2023-02-22T06:46:59.548Z,28.03
2023-02-22T06:49:27.397Z,27.73
2023-02-22T06:51:54.712Z,30.03
2023-02-22T06:54:22.584Z,30.93
2023-02-22T06:56:49.541Z,30.47
2023-02-22T06:59:16.827Z,33.40
2023-02-22T07:01:44.595Z,30.50
2023-02-22T07:04:11.562Z,31.47
2023-02-22T07:06:38.419Z,27.93
2023-02-22T07:09:05.396Z,29.83
2023-02-22T07:11:32.233Z,28.60
2023-02-22T07:13:58.887Z,30.67
2023-02-22T07:16:25.642Z,31.90
2023-02-22T07:18:52.340Z,32.17
2023-02-22T07:21:19.377Z,32.67
2023-02-22T07:23:54.130Z,30.33
2023-02-22T07:26:21.858Z,31.13
2023-02-22T07:28:48.778Z,30.00
2023-02-22T07:31:16.003Z,31.00
2023-02-22T07:33:42.946Z,30.57
2023-02-22T07:36:09.979Z,33.27
2023-02-22T07:38:36.639Z,33.33
2023-02-22T07:41:03.786Z,37.00
2023-02-22T07:43:31.543Z,37.23
2023-02-22T07:46:00.264Z,41.10
2023-02-22T07:48:29.157Z,46.07
2023-02-22T07:50:55.959Z,46.33
2023-02-22T07:53:30.182Z,46.43
2023-02-22T07:55:57.907Z,43.20
2023-02-22T07:58:26.588Z,41.23
2023-02-22T08:00:54.367Z,44.47
2023-02-22T08:03:23.277Z,43.07
2023-02-22T08:05:52.781Z,41.00
2023-02-22T08:08:20.081Z,42.30
2023-02-22T08:10:47.454Z,38.07
2023-02-22T08:13:14.579Z,40.07
2023-02-22T08:15:43.943Z,45.73
2023-02-22T08:18:12.843Z,45.10
2023-02-22T08:20:42.088Z,45.20
2023-02-22T08:23:09.619Z,44.37
2023-02-22T08:25:36.883Z,44.07
2023-02-22T08:28:06.792Z,46.63
2023-02-22T08:30:35.188Z,45.37
2023-02-22T08:33:03.001Z,43.30
2023-02-22T08:35:32.357Z,39.90
2023-02-22T08:38:05.260Z,39.07
2023-02-22T08:40:36.876Z,38.13
2023-02-22T08:43:04.508Z,37.47
2023-02-22T08:45:31.346Z,34.77
2023-02-22T08:47:59.431Z,33.10
2023-02-22T08:50:33.507Z,29.60
2023-02-22T08:53:02.039Z,28.93
2023-02-22T08:55:32.432Z,29.00
2023-02-22T08:58:01.436Z,28.13
2023-02-22T09:00:30.668Z,27.80
2023-02-22T09:02:57.437Z,26.23
2023-02-22T09:05:24.365Z,27.33
2023-02-22T09:07:51.186Z,24.93
2023-02-22T09:10:24.454Z,25.23
2023-02-22T09:12:52.577Z,25.03
2023-02-22T09:15:19.352Z,24.50
2023-02-22T09:17:46.527Z,24.23
2023-02-22T09:20:14.161Z,23.80
2023-02-22T09:22:41.301Z,24.90
2023-02-22T09:25:16.725Z,25.40
2023-02-22T09:27:45.222Z,22.80
2023-02-22T09:30:25.409Z,22.87
2023-02-22T09:32:59.408Z,22.90
2023-02-22T09:35:29.456Z,22.77
2023-02-22T09:37:58.398Z,21.50
2023-02-22T09:40:29.773Z,21.97
2023-02-22T09:43:14.017Z,19.70
2023-02-22T09:46:11.801Z,21.00
2023-02-22T09:48:51.990Z,20.00
2023-02-22T09:51:20.568Z,23.23
2023-02-22T09:53:50.556Z,21.83
2023-02-22T09:56:20.549Z,19.20
2023-02-22T09:58:55.082Z,21.00
2023-02-22T10:01:39.177Z,19.37
2023-02-22T10:04:22.069Z,18.10
2023-02-22T10:07:22.567Z,18.57
2023-02-22T10:09:50.137Z,18.70
2023-02-22T10:12:19.920Z,18.73
2023-02-22T10:15:01.339Z,18.73
2023-02-22T10:17:48.116Z,18.57
2023-02-22T10:20:46.824Z,19.73
2023-02-22T10:23:32.641Z,18.53
2023-02-22T10:26:19.007Z,18.23
2023-02-22T10:29:18.438Z,16.90
2023-02-22T10:31:50.680Z,17.93
2023-02-22T10:34:23.838Z,15.83
2023-02-22T10:37:20.292Z,16.57
2023-02-22T10:39:49.966Z,15.97
2023-02-22T10:42:16.747Z,15.17
2023-02-22T10:44:43.730Z,15.67
2023-02-22T10:47:17.139Z,15.93
2023-02-22T10:49:50.543Z,16.20
2023-02-22T10:52:26.029Z,16.80
2023-02-22T10:55:01.135Z,16.10
2023-02-22T10:57:36.678Z,16.77
2023-02-22T11:00:37.214Z,16.70
2023-02-22T11:03:18.347Z,15.77
2023-02-22T11:05:45.209Z,17.07
2023-02-22T11:08:30.798Z,15.90
2023-02-22T11:11:01.744Z,16.50
2023-02-22T11:13:30.934Z,14.60
2023-02-22T11:16:16.724Z,15.07
2023-02-22T11:18:43.808Z,16.43
2023-02-22T11:21:12.795Z,16.50
2023-02-22T11:23:44.861Z,16.10
2023-02-22T11:26:17.469Z,16.77
2023-02-22T11:28:55.936Z,15.60
2023-02-22T11:31:27.424Z,15.63
2023-02-22T11:36:40.381Z,15.77
2023-02-22T11:39:22.408Z,14.17
2023-02-22T11:41:52.113Z,15.87
2023-02-22T11:44:21.772Z,14.50
2023-02-22T11:46:49.436Z,14.07
2023-02-22T11:49:17.325Z,16.17
2023-02-22T11:52:27.092Z,14.20
2023-02-22T11:55:32.706Z,14.50
2023-02-22T11:58:30.085Z,14.80
2023-02-22T12:01:17.674Z,15.70
2023-02-22T12:04:23.675Z,14.77
2023-02-22T12:06:56.957Z,12.77
2023-02-22T12:09:36.805Z,12.90
2023-02-22T12:12:15.524Z,13.67
2023-02-22T12:14:47.866Z,11.60
2023-02-22T12:17:30.944Z,12.70
2023-02-22T12:20:10.373Z,10.70
2023-02-22T12:22:46.543Z,12.50
2023-02-22T12:25:23.901Z,11.20
2023-02-22T12:27:55.726Z,11.60
2023-02-22T12:30:36.313Z,11.20
2023-02-22T12:33:06.851Z,11.73
2023-02-22T12:35:37.242Z,10.83
2023-02-22T12:38:22.913Z,11.17
2023-02-22T12:41:25.253Z,13.57
2023-02-22T12:44:06.787Z,13.70
2023-02-22T12:46:39.056Z,13.37
2023-02-22T12:49:18.116Z,12.40
2023-02-22T12:52:15.917Z,12.50
2023-02-22T12:55:09.212Z,12.90
2023-02-22T12:57:45.204Z,13.37
2023-02-22T13:00:34.992Z,11.50
2023-02-22T13:03:17.973Z,13.20
2023-02-22T13:05:48.364Z,11.60
2023-02-22T13:08:39.200Z,12.83
2023-02-22T13:11:29.992Z,11.80
2023-02-22T13:14:14.945Z,12.60
2023-02-22T13:17:01.609Z,11.80
2023-02-22T13:20:00.876Z,11.27
2023-02-22T13:22:33.021Z,11.20
2023-02-22T13:25:14.026Z,10.00
2023-02-22T13:27:49.245Z,10.83
2023-02-22T13:30:24.318Z,9.40
2023-02-22T13:33:14.589Z,9.93
2023-02-22T13:35:41.431Z,11.43
2023-02-22T13:38:17.573Z,10.47
2023-02-22T13:40:47.856Z,9.93
2023-02-22T13:43:23.811Z,10.23
2023-02-22T13:46:05.309Z,11.10
2023-02-22T13:49:13.175Z,9.33
2023-02-22T13:51:45.948Z,10.57
2023-02-22T13:54:36.271Z,10.10
2023-02-22T13:57:17.163Z,10.90
2023-02-22T13:59:44.054Z,10.37
2023-02-22T14:02:53.195Z,10.23
2023-02-22T14:05:50.015Z,11.40
2023-02-22T14:08:21.924Z,12.00
2023-02-22T14:10:59.073Z,11.23
2023-02-22T14:13:28.675Z,11.00
2023-02-22T14:16:02.231Z,10.40
2023-02-22T14:18:43.023Z,11.50
2023-02-22T14:21:22.056Z,10.60
2023-02-22T14:23:52.944Z,11.23
2023-02-22T14:26:34.639Z,11.37
2023-02-22T14:29:10.131Z,9.90
2023-02-22T14:32:00.917Z,10.30
2023-02-22T14:34:53.850Z,10.70
2023-02-22T14:37:31.140Z,10.67
2023-02-22T14:40:02.215Z,10.20
2023-02-22T14:42:34.170Z,9.90
2023-02-22T14:45:24.815Z,11.13
2023-02-22T14:48:04.151Z,10.70
2023-02-22T14:50:53.719Z,10.33
2023-02-22T14:53:25.283Z,10.70
2023-02-22T14:56:07.068Z,11.20
2023-02-22T14:58:55.181Z,12.03
2023-02-22T15:01:48.848Z,10.20
2023-02-22T15:04:26.169Z,11.93
2023-02-22T15:06:55.615Z,11.77
2023-02-22T15:09:32.945Z,11.80
2023-02-22T15:12:03.879Z,11.17
2023-02-22T15:14:39.185Z,11.83
2023-02-22T15:17:25.267Z,10.80
2023-02-22T15:19:53.568Z,10.73
2023-02-22T15:22:25.360Z,11.80
2023-02-22T15:25:05.314Z,11.07
2023-02-22T15:27:36.904Z,12.40
2023-02-22T15:30:18.203Z,11.93
2023-02-22T15:33:02.456Z,11.43
2023-02-22T15:35:33.503Z,11.37
2023-02-22T15:38:03.631Z,10.60
2023-02-22T15:40:33.317Z,12.10
2023-02-22T15:43:08.873Z,11.90
2023-02-22T15:45:43.448Z,12.40
2023-02-22T15:48:11.702Z,10.80
2023-02-22T15:50:39.578Z,10.67
2023-02-22T15:53:30.341Z,11.23
2023-02-22T15:56:01.015Z,12.07
2023-02-22T15:58:33.268Z,11.03
2023-02-22T16:01:02.358Z,10.70
2023-02-22T16:03:45.624Z,12.70
2023-02-22T16:06:37.094Z,12.00
2023-02-22T16:09:17.003Z,12.30
2023-02-22T16:11:46.499Z,11.83
2023-02-22T16:14:45.069Z,11.67
2023-02-22T16:17:31.179Z,13.43
2023-02-22T16:20:00.509Z,13.40
2023-02-22T16:22:36.056Z,13.90
2023-02-22T16:25:35.630Z,13.67
2023-02-22T16:28:24.158Z,13.80
2023-02-22T16:30:58.247Z,15.77
2023-02-22T16:33:29.818Z,13.73
2023-02-22T16:35:57.113Z,14.10
2023-02-22T16:38:27.511Z,15.33
2023-02-22T16:40:56.599Z,15.37
2023-02-22T16:43:29.601Z,14.50
2023-02-22T16:45:58.060Z,16.00
2023-02-22T16:48:31.494Z,15.73
2023-02-22T16:51:17.875Z,14.13
2023-02-22T16:53:46.694Z,14.60
2023-02-22T16:56:17.806Z,14.80
2023-02-22T16:58:46.719Z,16.27
2023-02-22T17:01:14.013Z,14.33
2023-02-22T17:03:41.069Z,16.10
2023-02-22T17:06:10.551Z,14.53
2023-02-22T17:08:41.684Z,15.67
2023-02-22T17:11:11.377Z,15.77
2023-02-22T17:13:40.410Z,16.70
2023-02-22T17:16:11.457Z,15.27
2023-02-22T17:18:39.270Z,16.20
2023-02-22T17:21:06.593Z,16.53
2023-02-22T17:23:33.281Z,17.60
2023-02-22T17:26:04.413Z,15.80
2023-02-22T17:28:32.043Z,15.97
2023-02-22T17:31:02.677Z,17.40
2023-02-22T17:33:33.423Z,15.80
2023-02-22T17:36:02.039Z,17.80
2023-02-22T17:38:30.185Z,17.27
2023-02-22T17:40:59.242Z,18.97
2023-02-22T17:43:27.975Z,19.90
2023-02-22T17:45:55.861Z,19.90
2023-02-22T17:48:24.159Z,19.83
2023-02-22T17:50:52.117Z,21.23
2023-02-22T17:53:22.528Z,21.37
2023-02-22T17:55:49.550Z,23.70
2023-02-22T17:58:17.122Z,23.80
2023-02-22T18:00:47.765Z,24.50
2023-02-22T18:03:21.444Z,24.67
2023-02-22T18:05:49.872Z,26.63
2023-02-22T18:08:16.643Z,25.60
2023-02-22T18:10:43.759Z,27.80
2023-02-22T18:13:17.770Z,25.03
2023-02-22T18:15:45.670Z,28.00
2023-02-22T18:18:13.123Z,26.27
2023-02-22T18:20:44.857Z,26.47
2023-02-22T18:23:14.535Z,25.70
2023-02-22T18:25:57.220Z,25.33
2023-02-22T18:28:31.287Z,27.53
2023-02-22T18:31:01.707Z,25.00
2023-02-22T18:33:28.619Z,26.47
2023-02-22T18:35:55.291Z,25.40
2023-02-22T18:38:26.295Z,24.87
2023-02-22T18:41:05.341Z,25.33
2023-02-22T18:43:35.310Z,25.60
2023-02-22T18:46:13.044Z,25.13
2023-02-22T18:48:40.524Z,27.30
2023-02-22T18:51:10.603Z,25.27
2023-02-22T18:53:38.976Z,25.40
2023-02-22T18:56:11.969Z,25.70
2023-02-22T18:58:39.156Z,26.50
2023-02-22T19:01:07.398Z,26.00
2023-02-22T19:03:38.079Z,24.90
2023-02-22T19:06:10.179Z,26.13
2023-02-22T19:08:42.091Z,27.37
2023-02-22T19:11:17.756Z,24.30
2023-02-22T19:13:48.336Z,25.10
2023-02-22T19:16:21.259Z,25.27
2023-02-22T19:18:50.073Z,25.73
2023-02-22T19:21:17.357Z,25.73
2023-02-22T19:23:48.570Z,24.57
2023-02-22T19:26:21.062Z,26.23
2023-02-22T19:28:48.527Z,26.30
2023-02-22T19:31:18.744Z,24.97
2023-02-22T19:33:47.797Z,26.63
2023-02-22T19:36:16.338Z,24.40
2023-02-22T19:38:43.673Z,25.90
2023-02-22T19:41:18.066Z,25.67
2023-02-22T19:43:46.942Z,27.53
2023-02-22T19:46:13.804Z,26.40
2023-02-22T19:48:41.207Z,28.40
2023-02-22T19:51:13.765Z,26.60
2023-02-22T19:53:41.830Z,26.67
2023-02-22T19:56:19.299Z,27.77
2023-02-22T19:58:49.686Z,26.37
2023-02-22T20:01:25.346Z,26.23
2023-02-22T20:03:54.388Z,27.33
2023-02-22T20:06:28.477Z,27.17
2023-02-22T20:08:56.978Z,26.80
2023-02-22T20:11:24.567Z,26.00
2023-02-22T20:13:55.394Z,26.00
2023-02-22T20:16:23.225Z,25.60
2023-02-22T20:18:50.047Z,24.60
2023-02-22T20:21:30.765Z,26.97
2023-02-22T20:24:02.886Z,26.50
2023-02-22T20:26:31.457Z,24.37
2023-02-22T20:28:59.106Z,25.00
2023-02-22T20:31:26.237Z,24.40
2023-02-22T20:33:54.934Z,25.57
2023-02-22T20:36:22.234Z,23.90
2023-02-22T20:38:53.888Z,24.97
2023-02-22T20:41:26.388Z,25.50
2023-02-22T20:43:55.096Z,26.87
2023-02-22T20:46:23.921Z,26.20
2023-02-22T20:48:57.955Z,26.63
2023-02-22T20:51:26.151Z,25.93
2023-02-22T20:53:53.468Z,24.73
2023-02-22T20:56:23.335Z,27.03
2023-02-22T20:58:51.093Z,27.53
2023-02-22T21:01:19.908Z,27.80
2023-02-22T21:03:47.059Z,25.23
2023-02-22T21:06:16.161Z,24.70
2023-02-22T21:08:45.483Z,27.70
2023-02-22T21:11:14.667Z,26.07
2023-02-22T21:13:41.735Z,26.13
2023-02-22T21:16:15.326Z,25.07
2023-02-22T21:18:41.993Z,26.60
2023-02-22T21:21:10.412Z,24.47
2023-02-22T21:23:38.604Z,26.00
2023-02-22T21:26:07.069Z,26.83
2023-02-22T21:28:53.168Z,26.87
2023-02-22T21:31:24.968Z,27.67
2023-02-22T21:33:54.328Z,27.60
2023-02-22T21:36:24.939Z,26.60
2023-02-22T21:38:57.396Z,28.73
2023-02-22T21:41:31.493Z,26.40
2023-02-22T21:43:59.217Z,28.23
2023-02-22T21:46:27.769Z,26.90
2023-02-22T21:48:58.294Z,27.10
2023-02-22T21:51:31.488Z,27.53
2023-02-22T21:54:03.981Z,27.50
2023-02-22T21:56:34.258Z,27.47
2023-02-22T21:59:13.688Z,29.33
2023-02-22T22:01:49.747Z,27.23
2023-02-22T22:04:20.397Z,29.67
2023-02-22T22:06:49.894Z,27.07
2023-02-22T22:09:18.247Z,28.37
2023-02-22T22:11:47.052Z,29.80
2023-02-22T22:14:13.731Z,28.77
2023-02-22T22:16:40.708Z,30.20
2023-02-22T22:19:08.148Z,30.57
2023-02-22T22:21:35.021Z,31.40
2023-02-22T22:24:03.943Z,31.03
2023-02-22T22:26:31.314Z,30.47
2023-02-22T22:28:58.998Z,31.60
2023-02-22T22:31:27.508Z,32.00
2023-02-22T22:33:56.313Z,31.80
2023-02-22T22:36:24.659Z,34.30
2023-02-22T22:38:52.781Z,33.23
2023-02-22T22:41:21.770Z,35.63
2023-02-22T22:43:48.653Z,35.00
2023-02-22T22:46:17.553Z,35.73
2023-02-22T22:48:47.389Z,37.60
2023-02-22T22:51:20.040Z,40.70
2023-02-22T22:53:48.804Z,37.20
2023-02-22T22:56:21.689Z,39.27
2023-02-22T22:58:53.931Z,41.30
2023-02-22T23:01:27.359Z,39.40
2023-02-22T23:04:02.091Z,40.37
2023-02-22T23:06:32.995Z,41.10
2023-02-22T23:09:27.316Z,39.60
2023-02-22T23:11:57.705Z,42.30
2023-02-22T23:14:31.458Z,41.60
2023-02-22T23:17:03.694Z,39.70
2023-02-22T23:19:35.599Z,40.77
2023-02-22T23:22:05.349Z,42.37
2023-02-22T23:24:36.040Z,40.70
2023-02-22T23:27:07.153Z,42.67
2023-02-22T23:29:37.829Z,42.57
2023-02-22T23:32:05.946Z,41.10
2023-02-22T23:34:35.758Z,40.97
2023-02-22T23:37:03.187Z,42.60
2023-02-22T23:39:30.131Z,41.70
2023-02-22T23:41:59.154Z,41.27
2023-02-22T23:44:27.520Z,41.27
2023-02-22T23:46:55.818Z,39.17
2023-02-22T23:49:27.530Z,41.87
2023-02-22T23:51:54.803Z,41.63
2023-02-22T23:54:24.313Z,41.50
2023-02-22T23:56:57.031Z,42.10
2023-02-22T23:59:26.348Z,40.30
